首页
METAR-TAF:

METAR-TAF

机场 :

赫维什-巴拉顿国际机场

黑維茲, 匈牙利

纬度: 46-41-11N, 经度: 017-09-33E, 海拔: 124米

当前天气观测

该预报发布于35分钟前的12:15 UTC
风速3节,风向,在东北东南之间变化
温度 0°C
湿度 100%
气压 1022 hPa
能見度: 2200
阴天层高于200英尺
轻雾

METAR: LHSM 261215Z AUTO 09003KT 040V140 2200 BR OVC002 M00/M00 Q1022 NOSIG

时间: 13:50 (12:50 UTC)

预报

该预报发布于1小时和35分钟前的11:15 UTC
预报有效从26日的 12点(UTC)到 26日的 21点(UTC)
风速3节,风向
能見度: 3000
多云层高于500英尺
轻雾
短暂存在
从 26日的 12点(UTC)到 26日的 14点(UTC)
能見度: 1500
阴天层高于200英尺
轻雾, 小毛毛雨
成为
从 26日的 14点(UTC)到 26日的 17点(UTC)
能見度: 1500
轻雾
短暂存在
从 26日的 17点(UTC)到 26日的 21点(UTC)
能見度: 0600
层高于100英尺
冻雾

TAF: LHSM 261115Z 2612/2621 10003KT 3000 BR BKN005 TEMPO 2612/2614 1500 BR -DZ OVC002 BECMG 2614/2617 1500 FZBCFG BR TEMPO 2617/2621 0600 FZFG VV001

超过4000个机场的气象观测和天气预报(METAR&TAF报告)。

可查询的气象台以黄色和红色小点在地图上表示。

将鼠标移到小点上方,可查看气象台名称。

然后点击查看天气观测和预报。

如需切换地图:点击带黑十字的绿色按钮放大地图;点击带横线的绿色按钮缩小地图;或者点击绿色箭头查看邻近地区的地图。


METAR-TAF: